• Join FlightAware (Why Join?)
  • Login
  • US Flag 
04:49AM EDT


 

Airport Tracker/Info


-or-


 

Live Flight TrackerFlight Track Log ✈ N400WK ✈ 20-Jul-2013 ✈ KRDU - KCRE

Flight Track Log - Related Links

Times and Time Zones

All times are in EDT time to prevent confusion due to time zone crossing. See the N400WK flight status page for this flight to view local times or setup timezone preferences in your user account.

Time Position Orientation Groundspeed Altitude Reporting Facility
EDT Latitude Longitude Course Direction KTS MPH feet Rate Location/Type
10:24AM 35.8583 -78.8058 197° South 161 185 1,000  Level Washington Center
10:24AM 35.8206 -78.8197 197° South 203 234 2,800 2,340 Climbing Washington Center
10:25AM 35.7531 -78.8475 198° South 272 313 5,100 2,400 Climbing Washington Center
10:26AM 35.7064 -78.8686 200° South 269 310 7,300 2,400 Climbing Washington Center
10:27AM 35.6311 -78.8811 188° South 269 310 9,500 2,220 Climbing Washington Center
10:28AM 35.5514 -78.8906 186° South 282 325 11,800 2,100 Climbing Washington Center
10:29AM 35.4658 -78.8972 184° South 296 341 13,800 1,980 Climbing Washington Center
10:30AM 35.3672 -78.9133 188° South 321 369 15,800 1,080 Climbing Washington Center
10:31AM 35.2833 -78.9253 187° South 340 391 16,000 60 Climbing Washington Center
10:32AM 35.1669 -78.9078 173° South 373 429 16,000  Level Washington Center
10:33AM 35.0672 -78.8908 172° South 390 449 16,000 -60 Level Washington Center
10:34AM 34.9489 -78.8733 173° South 390 449 15,900 -60 Descending Washington Center
10:35AM 34.8533 -78.8594 173° South 390 449 15,900 -600 Level Washington Center
10:36AM 34.7347 -78.8447 174° South 384 442 14,800 -1,320 Descending Washington Center
10:38AM 34.6033 -78.8292 174° South 393 452 12,900 -1,680 Descending Jacksonville Center
10:39AM 34.4903 -78.8192 176° South 387 445 11,100 -960 Descending Jacksonville Center
10:40AM 34.3961 -78.8061 173° South 368 423 11,000 -300 Descending Jacksonville Center
10:41AM 34.3142 -78.7922 172° South 337 388 10,500 -1,440 Descending Jacksonville Center
10:42AM 34.2328 -78.7836 175° South 309 356 8,200 -2,160 Descending Jacksonville Center
10:43AM 34.1550 -78.7722 173° South 296 341 6,200 -1,620 Descending Jacksonville Center
10:44AM 34.0839 -78.7631 174° South 280 322 5,000 -1,080 Descending Jacksonville Center
10:45AM 34.0144 -78.7464 169° South 268 308 4,100 -1,620 Descending Jacksonville Center
10:46AM 33.9450 -78.7269 167° South 262 302 1,800 -1,500 Descending Jacksonville Center
10:47AM 33.8836 -78.6975 158° South 252 290 1,100 -480 Descending Jacksonville Center
10:48AM 33.8244 -78.6803 166° South 243 280 900 -240 Descending Jacksonville Center